This is the latest recevied weather packets stored in our database for station/object KB3YCK-2. If no packets are shown the sender has not sent any weather packets the latest 10 day(s).
| Time | Temp. | Humidity | Pressure | Rain* | Wind** | Luminosity | Snow |
|---|---|---|---|---|---|---|---|
| 1777966506 | 12.22° C | 89% | 1011 hPa | 0 mm | - | 0 W/m² | - |
| 1777964412 | 12.22° C | 89% | 1011 hPa | 0 mm | - | 0 W/m² | - |
| 1777960804 | 11.67° C | 84% | 1011.1 hPa | 0 mm | - | 0 W/m² | - |
| 1777960205 | 11.67° C | 83% | 1011.1 hPa | 0 mm | - | 0 W/m² | - |
| 1777959603 | 12.22° C | 83% | 1011 hPa | 0 mm | - | 0 W/m² | - |
| 1777952119 | 14.44° C | 76% | 1010.9 hPa | 0 mm | - | 0 W/m² | - |
| 1777951802 | 14.44° C | 77% | 1011 hPa | 0 mm | - | 0 W/m² | - |
| 1777949703 | 14.44° C | 75% | 1011.1 hPa | 0 mm | - | 0 W/m² | - |
| 1777949404 | 14.44° C | 76% | 1011 hPa | 0 mm | - | 0 W/m² | - |
| 1777948808 | 14.44° C | 75% | 1010.9 hPa | 0 mm | - | 0 W/m² | - |
| 1777947308 | 15° C | 74% | 1011.2 hPa | 0 mm | - | 0 W/m² | - |
| 1777946404 | 15° C | 73% | 1011.2 hPa | 0 mm | - | 0 W/m² | - |
| 1777946107 | 15° C | 73% | 1011.2 hPa | 0 mm | - | 0 W/m² | - |
| 1777943104 | 16.67° C | 69% | 1010.6 hPa | 0 mm | - | 0 W/m² | - |
| 1777942511 | 16.67° C | 68% | 1010.6 hPa | 0 mm | - | 0 W/m² | - |
| 1777941026 | 17.78° C | 66% | 1010.4 hPa | 0 mm | - | 0 W/m² | - |
| 1777940124 | 18.33° C | 66% | 1010.3 hPa | 0 mm | - | 0 W/m² | - |
| 1777939203 | 18.89° C | 64% | 1010.2 hPa | 0 mm | - | 0 W/m² | - |
| 1777938903 | 19.44° C | 63% | 1010.2 hPa | 0 mm | - | 5 W/m² | - |
| 1777938607 | 19.44° C | 63% | 1010.1 hPa | 0 mm | - | 7 W/m² | - |
| 1777933804 | 21.67° C | 59% | 1010.2 hPa | 0 mm | - | 169 W/m² | - |
| 1777929008 | 22.22° C | 57% | 1010.4 hPa | 0 mm | - | 468 W/m² | - |
| 1777927525 | 22.78° C | 55% | 1010.3 hPa | 0 mm | - | 540 W/m² | - |
| 1777926004 | 22.22° C | 56% | 1010.5 hPa | 0 mm | - | 612 W/m² | - |
| 1777925708 | 22.22° C | 58% | 1010.8 hPa | 0 mm | - | 621 W/m² | - |
* Rain latest hour (hover to see other rain measurements)
** Current wind speed in m/s (hover to see current wind gust speed)